Startpagina
METAR-TAF:

METAR-TAF

Vliegvelden :

Piacenza, Italië

breedte: 44-55N, lengte: 009-44E, hoogte: 134 m

Actueel weer

Dit bericht is 2 uur en het 23 minuten geleden gemaakt, om 17:55 UTC
Weinig wind
Temperatuur 10°C
Vochtigheid 87%
Druk 1021 hPa
Zicht: 6000 m

METAR: LIMS 231755Z 00000KT 6000 NSC 10/08 Q1021 RMK BKN BKN200 VIS MAX SW 15 KM VIS MIN 5000N WIND THR30 00000KT WHT

Tijdstip: 21:18 (20:18 UTC)


TAF: ontbreekt

Waarnemingen en weersverwachtingen van meer dan 4000 vliegvelden (METAR en TAF).

De beschikbare stations zijn de gele en rode punten op de kaart.

Ga met uw muis naar het station om de naam te zien.

Klik dan om waarnemingen en weersverwachtingen te zien.

kaart wijzigen: klik op de groene knoppen met een zwart kruis om in te zoomen, op de groene knop met een streepje om uit te zoomen of op de groene pijlen voor aangrenzende kaarten.


METAR-TAF: